Candy Machine — WDB5898 — position and weather

sailwx.info

Track history (hours):
 
Tides and Currents Weather Stations Pressure Air Temp Water Temp Dewpoint Dewpoint Depression Visibility Wind Speed Wind Dir Waves Ship Positions

Candy Machine

Owner: CANDY MACHINE LLC, MORGAN CITY, LA. More information available from US FCC via Universal Licensing System and Coast Guard Vessel Documentation Center.

Last reported at 2018-Feb-17 14:30 UTC. Time now 2018-Feb-19 18:15 UTC.
Position N 29°43' W 092°15'.

Length 40 m; draft 2 m.

Type: Passenger vessel. MMSI: 366914770.

Date/timePositionNaut miles runAvg speedWind from/ knotsBaromVisibWave heightAir tempDewpointWater temp
2018-Feb-17 14:30N 29°43' W 092°15'4 9.0
2018-Feb-17 14:00N 29°46' W 092°11'1 1.8
2018-Feb-17 13:31N 29°47' W 092°11'0 0.0
2018-Feb-17 13:00N 29°47' W 092°11'0 0.0
2018-Feb-17 12:30N 29°47' W 092°11'0 0.0
2018-Feb-17 12:00N 29°47' W 092°11'0 0.0
2018-Feb-17 11:30N 29°47' W 092°11'0 0.0
2018-Feb-17 11:00N 29°47' W 092°11'0 0.0
2018-Feb-17 10:30N 29°47' W 092°11'0 0.0
2018-Feb-17 10:00N 29°47' W 092°11'0 0.0
2018-Feb-17 09:31N 29°47' W 092°11'0 0.0
2018-Feb-17 09:00N 29°47' W 092°11'0 0.0
2018-Feb-17 08:31N 29°47' W 092°11'0 0.0
2018-Feb-17 08:00N 29°47' W 092°11'0 0.0
2018-Feb-17 07:30N 29°47' W 092°11'0 0.0
2018-Feb-17 07:01N 29°47' W 092°11'0 0.0
2018-Feb-17 06:30N 29°47' W 092°11'0 0.7
2018-Feb-17 06:00N 29°47' W 092°11'4 8.5
2018-Feb-17 05:29N 29°44' W 092°15'1 0.0
2018-Feb-15 17:45N 29°43' W 092°15'2 9.1
2018-Feb-15 17:30N 29°44' W 092°14'3 6.5
2018-Feb-15 17:00N 29°47' W 092°11'0 0.4
2018-Feb-15 16:30N 29°47' W 092°11'0 0.0
2018-Feb-15 16:00N 29°47' W 092°11'0 0.0
2018-Feb-15 15:30N 29°47' W 092°11'0 0.0
2018-Feb-15 15:00N 29°47' W 092°11'0 0.0
2018-Feb-15 14:30N 29°47' W 092°11'0 0.0
2018-Feb-15 14:00N 29°47' W 092°11'0 0.2
2018-Feb-15 13:30N 29°47' W 092°11'0 0.0
2018-Feb-15 13:00N 29°47' W 092°11'0 0.0
2018-Feb-15 12:30N 29°47' W 092°11'0 0.0
2018-Feb-15 12:00N 29°47' W 092°11'0 0.0
2018-Feb-15 11:30N 29°47' W 092°11'0 0.0
2018-Feb-15 11:00N 29°47' W 092°11'0 0.0
2018-Feb-15 10:30N 29°47' W 092°11'0 0.2
2018-Feb-15 10:00N 29°47' W 092°11'0 0.0
2018-Feb-15 08:05N 29°47' W 092°11'0 0.0
2018-Feb-15 08:00N 29°47' W 092°11'1 1.5
2018-Feb-15 07:30N 29°46' W 092°11'4 8.4
2018-Feb-15 07:00N 29°44' W 092°15'  
Track history (hours):
 
Tides and Currents Weather Stations Pressure Air Temp Water Temp Dewpoint Dewpoint Depression Visibility Wind Speed Wind Dir Waves Ship Positions

Candy Machine

Owner: CANDY MACHINE LLC, MORGAN CITY, LA. More information available from US FCC via Universal Licensing System and Coast Guard Vessel Documentation Center.

Last reported at 2018-Feb-17 14:30 UTC. Time now 2018-Feb-19 18:15 UTC.
Position N 29°43' W 092°15'.

Length 40 m; draft 2 m.

Type: Passenger vessel. MMSI: 366914770.

Date/timePositionNaut miles runAvg speedWind from/ knotsBaromVisibWave heightAir tempDewpointWater temp
2018-Feb-17 14:30N 29°43' W 092°15'4 9.0
2018-Feb-17 14:00N 29°46' W 092°11'1 1.8
2018-Feb-17 13:31N 29°47' W 092°11'0 0.0
2018-Feb-17 13:00N 29°47' W 092°11'0 0.0
2018-Feb-17 12:30N 29°47' W 092°11'0 0.0
2018-Feb-17 12:00N 29°47' W 092°11'0 0.0
2018-Feb-17 11:30N 29°47' W 092°11'0 0.0
2018-Feb-17 11:00N 29°47' W 092°11'0 0.0
2018-Feb-17 10:30N 29°47' W 092°11'0 0.0
2018-Feb-17 10:00N 29°47' W 092°11'0 0.0
2018-Feb-17 09:31N 29°47' W 092°11'0 0.0
2018-Feb-17 09:00N 29°47' W 092°11'0 0.0
2018-Feb-17 08:31N 29°47' W 092°11'0 0.0
2018-Feb-17 08:00N 29°47' W 092°11'0 0.0
2018-Feb-17 07:30N 29°47' W 092°11'0 0.0
2018-Feb-17 07:01N 29°47' W 092°11'0 0.0
2018-Feb-17 06:30N 29°47' W 092°11'0 0.7
2018-Feb-17 06:00N 29°47' W 092°11'4 8.5
2018-Feb-17 05:29N 29°44' W 092°15'1 0.0
2018-Feb-15 17:45N 29°43' W 092°15'2 9.1
2018-Feb-15 17:30N 29°44' W 092°14'3 6.5
2018-Feb-15 17:00N 29°47' W 092°11'0 0.4
2018-Feb-15 16:30N 29°47' W 092°11'0 0.0
2018-Feb-15 16:00N 29°47' W 092°11'0 0.0
2018-Feb-15 15:30N 29°47' W 092°11'0 0.0
2018-Feb-15 15:00N 29°47' W 092°11'0 0.0
2018-Feb-15 14:30N 29°47' W 092°11'0 0.0
2018-Feb-15 14:00N 29°47' W 092°11'0 0.2
2018-Feb-15 13:30N 29°47' W 092°11'0 0.0
2018-Feb-15 13:00N 29°47' W 092°11'0 0.0
2018-Feb-15 12:30N 29°47' W 092°11'0 0.0
2018-Feb-15 12:00N 29°47' W 092°11'0 0.0
2018-Feb-15 11:30N 29°47' W 092°11'0 0.0
2018-Feb-15 11:00N 29°47' W 092°11'0 0.0
2018-Feb-15 10:30N 29°47' W 092°11'0 0.2
2018-Feb-15 10:00N 29°47' W 092°11'0 0.0
2018-Feb-15 08:05N 29°47' W 092°11'0 0.0
2018-Feb-15 08:00N 29°47' W 092°11'1 1.5
2018-Feb-15 07:30N 29°46' W 092°11'4 8.4
2018-Feb-15 07:00N 29°44' W 092°15'  

Dump ship's entire track history